Air Navigation Services of Czech Republic
Airport: LKPR Updated:  21.01.2020 22:30:26  UTC
 METAR LKPR 21.01. 22:30 ...
METAR LKPR 212230Z 23006KT 0900 R24/1300D R30/1600D FZFG VV002 M03/M04 Q1036 NOSIG RMK REG QNH 1031=
 TAF LKPR 21.01. 17:00 AAA
TAF AMD LKPR 211925Z 2119/2300 21006KT 0600 FZFG BKN002      TEMPO 2119/2122 0900 FZFG BKN004      BECMG 2122/2200 0400 FZFG BKN001      TEMPO 2200/2207 0600 FZFG BKN003      BECMG 2207/2209 25010KT 9999 SCT025      BECMG 2212/2214 32006KT BKN030      BECMG 2218/2220 VRB02KT      TEMPO 2221/2300 5000 BR BKN013=